Time,TemperatureF,DewpointF,PressureIn,WindDirection,WindDirectionDegrees,WindSpeedMPH,WindSpeedGustMPH,Humidity,HourlyPrecipIn,Conditions,Clouds,dailyrainin,SoftwareType,DateUTC
2013-09-23 00:00:00,47.3,44.2,30.04,North,0,0.0,0.0,89,0.00,,CLR,0.00,VWS V14.01,2013-09-23 04:00:00,
2013-09-23 00:01:00,47.1,44.0,30.04,North,0,0.0,0.0,89,0.00,,CLR,0.00,VWS V14.01,2013-09-23 04:01:00,
2013-09-23 00:06:00,47.0,43.9,30.04,North,0,0.0,0.0,89,0.00,,CLR,0.00,VWS V14.01,2013-09-23 04:06:00,
2013-09-23 00:11:00,47.0,44.2,30.04,North,0,0.0,0.0,90,0.00,,CLR,0.00,VWS V14.01,2013-09-23 04:11:00,
2013-09-23 00:15:00,48.0,44.6,30.03,North,0,0.0,0.0,88,0.00,,CLR,0.00,VWS V14.01,2013-09-23 04:15:00,
2013-09-23 00:16:00,46.8,44.0,30.04,North,0,0.0,0.0,90,0.00,,CLR,0.00,VWS V14.01,2013-09-23 04:16:00,
2013-09-23 00:21:00,46.7,43.9,30.04,North,0,0.0,0.0,90,0.00,,CLR,0.00,VWS V14.01,2013-09-23 04:21:00,
2013-09-23 00:26:00,46.5,43.7,30.04,North,0,0.0,0.0,90,0.00,,CLR,0.00,VWS V14.01,2013-09-23 04:26:00,
2013-09-23 00:30:00,47.9,44.8,30.03,North,0,0.0,0.0,89,0.00,,CLR,0.00,VWS V14.01,2013-09-23 04:30:00,
2013-09-23 00:31:00,46.2,43.4,30.04,North,0,0.0,0.0,90,0.00,,CLR,0.00,VWS V14.01,2013-09-23 04:31:00,
2013-09-23 00:36:00,46.1,43.3,30.04,North,0,0.0,0.0,90,0.00,,CLR,0.00,VWS V14.01,2013-09-23 04:36:00,
2013-09-23 00:41:00,46.0,43.2,30.04,North,0,0.0,0.0,90,0.00,,CLR,0.00,VWS V14.01,2013-09-23 04:41:00,
2013-09-23 00:45:00,47.6,44.5,30.03,North,0,0.0,0.0,89,0.00,,CLR,0.00,VWS V14.01,2013-09-23 04:45:00,
2013-09-23 00:46:00,45.8,43.3,30.04,North,0,0.0,0.0,91,0.00,,CLR,0.00,VWS V14.01,2013-09-23 04:46:00,
2013-09-23 00:51:00,45.7,43.2,30.04,North,0,0.0,0.0,91,0.00,,CLR,0.00,VWS V14.01,2013-09-23 04:51:00,
2013-09-23 00:56:00,45.5,43.0,30.04,North,0,0.0,0.0,91,0.00,,CLR,0.00,VWS V14.01,2013-09-23 04:56:00,
2013-09-23 01:00:00,47.3,44.2,30.04,North,0,0.0,0.0,89,0.00,,CLR,0.00,VWS V14.01,2013-09-23 05:00:00,
2013-09-23 01:01:00,45.4,42.9,30.04,North,0,0.0,0.0,91,0.00,,CLR,0.00,VWS V14.01,2013-09-23 05:01:00,
2013-09-23 01:07:00,45.2,42.7,30.04,North,0,0.0,0.0,91,0.00,,CLR,0.00,VWS V14.01,2013-09-23 05:07:00,
2013-09-23 01:12:00,45.1,42.6,30.04,North,0,0.0,0.0,91,0.00,,CLR,0.00,VWS V14.01,2013-09-23 05:12:00,
2013-09-23 01:15:00,46.8,44.0,30.04,North,0,0.0,0.0,90,0.00,,CLR,0.00,VWS V14.01,2013-09-23 05:15:00,
2013-09-23 01:17:00,44.8,42.3,30.05,North,0,0.0,0.0,91,0.00,,CLR,0.00,VWS V14.01,2013-09-23 05:17:00,
2013-09-23 01:22:00,44.6,42.1,30.05,North,0,0.0,0.0,91,0.00,,CLR,0.00,VWS V14.01,2013-09-23 05:22:00,
2013-09-23 01:27:00,44.5,42.0,30.05,North,0,0.0,0.0,91,0.00,,CLR,0.00,VWS V14.01,2013-09-23 05:27:00,
2013-09-23 01:30:00,46.4,43.6,30.04,North,0,0.0,0.0,90,0.00,,CLR,0.00,VWS V14.01,2013-09-23 05:30:00,
2013-09-23 01:32:00,44.3,41.8,30.05,North,0,0.0,0.0,91,0.00,,CLR,0.00,VWS V14.01,2013-09-23 05:32:00,
2013-09-23 01:37:00,44.2,42.0,30.05,North,0,0.0,0.0,92,0.00,,CLR,0.00,VWS V14.01,2013-09-23 05:37:00,
2013-09-23 01:42:00,44.1,41.7,30.05,North,0,0.0,0.0,91,0.00,,CLR,0.00,VWS V14.01,2013-09-23 05:42:00,
2013-09-23 01:45:00,46.0,43.2,30.04,North,0,0.0,0.0,90,0.00,,CLR,0.00,VWS V14.01,2013-09-23 05:45:00,
2013-09-23 01:47:00,43.9,41.7,30.05,North,0,0.0,0.0,92,0.00,,CLR,0.00,VWS V14.01,2013-09-23 05:47:00,
2013-09-23 01:52:00,43.9,41.7,30.05,North,0,0.0,0.0,92,0.00,,CLR,0.00,VWS V14.01,2013-09-23 05:52:00,
2013-09-23 01:57:00,43.8,41.6,30.05,North,0,0.0,0.0,92,0.00,,CLR,0.00,VWS V14.01,2013-09-23 05:57:00,
2013-09-23 02:00:00,45.4,42.9,30.04,North,0,0.0,0.0,91,0.00,,CLR,0.00,VWS V14.01,2013-09-23 06:00:00,
2013-09-23 02:02:00,43.8,41.6,30.05,North,0,0.0,0.0,92,0.00,,,0.00,VWS V14.01,2013-09-23 06:02:00,
2013-09-23 02:07:00,43.6,41.4,30.05,North,0,0.0,0.0,92,0.00,,,0.00,VWS V14.01,2013-09-23 06:07:00,
2013-09-23 02:12:00,43.5,41.3,30.05,North,0,0.0,0.0,92,0.00,,,0.00,VWS V14.01,2013-09-23 06:12:00,
2013-09-23 02:15:00,44.9,42.4,30.05,North,0,0.0,0.0,91,0.00,,CLR,0.00,VWS V14.01,2013-09-23 06:15:00,
2013-09-23 02:17:00,43.5,41.3,30.05,North,0,0.0,0.0,92,0.00,,,0.00,VWS V14.01,2013-09-23 06:17:00,
2013-09-23 02:22:00,43.3,41.4,30.05,North,0,0.0,0.0,93,0.00,,,0.00,VWS V14.01,2013-09-23 06:22:00,
2013-09-23 02:27:00,43.3,41.4,30.05,North,0,0.0,0.0,93,0.00,,,0.00,VWS V14.01,2013-09-23 06:27:00,
2013-09-23 02:30:00,44.3,41.8,30.05,North,0,0.0,0.0,91,0.00,,CLR,0.00,VWS V14.01,2013-09-23 06:30:00,
2013-09-23 02:32:00,43.2,41.3,30.06,North,0,0.0,0.0,93,0.00,,,0.00,VWS V14.01,2013-09-23 06:32:00,
2013-09-23 02:37:00,43.2,41.3,30.06,North,0,0.0,0.0,93,0.00,,,0.00,VWS V14.01,2013-09-23 06:37:00,
2013-09-23 02:42:00,43.1,41.2,30.06,North,0,0.0,0.0,93,0.00,,,0.00,VWS V14.01,2013-09-23 06:42:00,
2013-09-23 02:45:00,44.1,41.9,30.05,North,0,0.0,0.0,92,0.00,,CLR,0.00,VWS V14.01,2013-09-23 06:45:00,
2013-09-23 02:47:00,42.9,41.0,30.06,North,0,0.0,0.0,93,0.00,,,0.00,VWS V14.01,2013-09-23 06:47:00,
2013-09-23 02:52:00,42.8,40.9,30.06,North,0,0.0,0.0,93,0.00,,,0.00,VWS V14.01,2013-09-23 06:52:00,
2013-09-23 02:57:00,42.8,40.9,30.06,North,0,0.0,0.0,93,0.00,,,0.00,VWS V14.01,2013-09-23 06:57:00,
2013-09-23 03:00:00,43.8,41.6,30.05,North,0,0.0,0.0,92,0.00,,CLR,0.00,VWS V14.01,2013-09-23 07:00:00,
2013-09-23 03:02:00,42.8,40.9,30.06,North,0,0.0,0.0,93,0.00,,,0.00,VWS V14.01,2013-09-23 07:02:00,
2013-09-23 03:07:00,42.8,40.9,30.06,North,0,0.0,0.0,93,0.00,,,0.00,VWS V14.01,2013-09-23 07:07:00,
2013-09-23 03:12:00,42.8,40.9,30.06,North,0,0.0,0.0,93,0.00,,,0.00,VWS V14.01,2013-09-23 07:12:00,
2013-09-23 03:15:00,43.5,41.3,30.05,North,0,0.0,0.0,92,0.00,,CLR,0.00,VWS V14.01,2013-09-23 07:15:00,
2013-09-23 03:17:00,42.6,40.7,30.05,North,0,0.0,0.0,93,0.00,,,0.00,VWS V14.01,2013-09-23 07:17:00,
2013-09-23 03:22:00,42.6,40.7,30.05,North,0,0.0,0.0,93,0.00,,,0.00,VWS V14.01,2013-09-23 07:22:00,
2013-09-23 03:27:00,42.5,40.6,30.05,North,0,0.0,0.0,93,0.00,,,0.00,VWS V14.01,2013-09-23 07:27:00,
2013-09-23 03:30:00,43.2,41.3,30.06,North,0,0.0,0.0,93,0.00,,CLR,0.00,VWS V14.01,2013-09-23 07:30:00,
2013-09-23 03:32:00,42.3,40.4,30.05,North,0,0.0,0.0,93,0.00,,,0.00,VWS V14.01,2013-09-23 07:32:00,
2013-09-23 03:37:00,42.2,40.3,30.05,North,0,0.0,0.0,93,0.00,,,0.00,VWS V14.01,2013-09-23 07:37:00,
2013-09-23 03:42:00,42.2,40.3,30.05,North,0,0.0,0.0,93,0.00,,,0.00,VWS V14.01,2013-09-23 07:42:00,
2013-09-23 03:45:00,42.9,41.0,30.06,North,0,0.0,0.0,93,0.00,,CLR,0.00,VWS V14.01,2013-09-23 07:45:00,
2013-09-23 03:47:00,42.1,40.2,30.06,North,0,0.0,0.0,93,0.00,,,0.00,VWS V14.01,2013-09-23 07:47:00,
2013-09-23 03:52:00,41.9,40.0,30.06,North,0,0.0,0.0,93,0.00,,,0.00,VWS V14.01,2013-09-23 07:52:00,
2013-09-23 03:57:00,41.9,40.0,30.06,North,0,0.0,0.0,93,0.00,,,0.00,VWS V14.01,2013-09-23 07:57:00,
2013-09-23 04:00:00,42.8,40.9,30.06,North,0,0.0,0.0,93,0.00,,CLR,0.00,VWS V14.01,2013-09-23 08:00:00,
2013-09-23 04:02:00,41.9,40.3,30.06,North,0,0.0,0.0,94,0.00,,,0.00,VWS V14.01,2013-09-23 08:02:00,
2013-09-23 04:07:00,41.9,40.3,30.06,North,0,0.0,0.0,94,0.00,,,0.00,VWS V14.01,2013-09-23 08:07:00,
2013-09-23 04:12:00,41.8,40.2,30.06,North,0,0.0,0.0,94,0.00,,,0.00,VWS V14.01,2013-09-23 08:12:00,
2013-09-23 04:15:00,42.6,40.7,30.05,North,0,0.0,0.0,93,0.00,,CLR,0.00,VWS V14.01,2013-09-23 08:15:00,
2013-09-23 04:17:00,41.8,40.2,30.06,North,0,0.0,0.0,94,0.00,,,0.00,VWS V14.01,2013-09-23 08:17:00,
2013-09-23 04:22:00,41.8,40.2,30.06,North,0,0.0,0.0,94,0.00,,,0.00,VWS V14.01,2013-09-23 08:22:00,
2013-09-23 04:27:00,41.6,40.0,30.06,North,0,0.0,0.0,94,0.00,,,0.00,VWS V14.01,2013-09-23 08:27:00,
2013-09-23 04:30:00,42.3,40.4,30.05,North,0,0.0,0.0,93,0.00,,CLR,0.00,VWS V14.01,2013-09-23 08:30:00,
2013-09-23 04:32:00,41.6,40.0,30.06,North,0,0.0,0.0,94,0.00,,,0.00,VWS V14.01,2013-09-23 08:32:00,
2013-09-23 04:37:00,41.8,40.2,30.06,North,0,0.0,0.0,94,0.00,,,0.00,VWS V14.01,2013-09-23 08:37:00,
2013-09-23 04:42:00,41.8,40.2,30.06,North,0,0.0,0.0,94,0.00,,,0.00,VWS V14.01,2013-09-23 08:42:00,
2013-09-23 04:45:00,42.1,40.2,30.06,North,0,0.0,0.0,93,0.00,,CLR,0.00,VWS V14.01,2013-09-23 08:45:00,
2013-09-23 04:47:00,41.9,40.3,30.06,North,0,0.0,0.0,94,0.00,,,0.00,VWS V14.01,2013-09-23 08:47:00,
2013-09-23 04:52:00,41.9,40.3,30.06,North,0,0.0,0.0,94,0.00,,,0.00,VWS V14.01,2013-09-23 08:52:00,
2013-09-23 04:57:00,42.1,40.5,30.06,North,0,0.0,0.0,94,0.00,,,0.00,VWS V14.01,2013-09-23 08:57:00,
2013-09-23 05:00:00,41.9,40.3,30.06,North,0,0.0,0.0,94,0.00,,CLR,0.00,VWS V14.01,2013-09-23 09:00:00,
2013-09-23 05:02:00,42.1,40.5,30.06,North,0,0.0,0.0,94,0.00,,CLR,0.00,VWS V14.01,2013-09-23 09:02:00,
2013-09-23 05:07:00,41.9,40.3,30.06,North,0,0.0,0.0,94,0.00,,CLR,0.00,VWS V14.01,2013-09-23 09:07:00,
2013-09-23 05:12:00,41.8,40.2,30.06,North,0,0.0,0.0,94,0.00,,CLR,0.00,VWS V14.01,2013-09-23 09:12:00,
2013-09-23 05:15:00,41.8,40.2,30.06,North,0,0.0,0.0,94,0.00,,CLR,0.00,VWS V14.01,2013-09-23 09:15:00,
2013-09-23 05:17:00,41.6,40.0,30.06,North,0,0.0,0.0,94,0.00,,CLR,0.00,VWS V14.01,2013-09-23 09:17:00,
2013-09-23 05:22:00,41.5,39.9,30.06,North,0,0.0,0.0,94,0.00,,CLR,0.00,VWS V14.01,2013-09-23 09:22:00,
2013-09-23 05:27:00,41.5,39.9,30.06,North,0,0.0,0.0,94,0.00,,CLR,0.00,VWS V14.01,2013-09-23 09:27:00,
2013-09-23 05:30:00,41.6,40.0,30.06,North,0,0.0,0.0,94,0.00,,CLR,0.00,VWS V14.01,2013-09-23 09:30:00,
2013-09-23 05:32:00,41.3,39.7,30.07,North,0,0.0,0.0,94,0.00,,CLR,0.00,VWS V14.01,2013-09-23 09:32:00,
2013-09-23 05:37:00,41.3,39.7,30.07,North,0,0.0,0.0,94,0.00,,CLR,0.00,VWS V14.01,2013-09-23 09:37:00,
2013-09-23 05:42:00,41.2,39.6,30.07,North,0,0.0,0.0,94,0.00,,CLR,0.00,VWS V14.01,2013-09-23 09:42:00,
2013-09-23 05:45:00,41.9,40.3,30.06,North,0,0.0,0.0,94,0.00,,CLR,0.00,VWS V14.01,2013-09-23 09:45:00,
2013-09-23 05:47:00,41.2,39.6,30.08,North,0,0.0,0.0,94,0.00,,CLR,0.00,VWS V14.01,2013-09-23 09:47:00,
2013-09-23 05:52:00,41.1,39.5,30.08,North,0,0.0,0.0,94,0.00,,CLR,0.00,VWS V14.01,2013-09-23 09:52:00,
2013-09-23 05:57:00,41.1,39.5,30.08,North,0,0.0,0.0,94,0.00,,CLR,0.00,VWS V14.01,2013-09-23 09:57:00,
2013-09-23 06:00:00,42.1,40.5,30.06,North,0,0.0,0.0,94,0.00,,CLR,0.00,VWS V14.01,2013-09-23 10:00:00,
2013-09-23 06:02:00,40.9,39.3,30.08,North,0,0.0,0.0,94,0.00,,CLR,0.00,VWS V14.01,2013-09-23 10:02:00,
2013-09-23 06:07:00,40.9,39.3,30.08,North,0,0.0,0.0,94,0.00,,CLR,0.00,VWS V14.01,2013-09-23 10:07:00,
2013-09-23 06:12:00,40.8,39.2,30.08,North,0,0.0,0.0,94,0.00,,CLR,0.00,VWS V14.01,2013-09-23 10:12:00,
2013-09-23 06:15:00,41.6,40.0,30.06,North,0,0.0,0.0,94,0.00,,CLR,0.00,VWS V14.01,2013-09-23 10:15:00,
2013-09-23 06:17:00,40.6,39.0,30.09,North,0,0.0,0.0,94,0.00,,CLR,0.00,VWS V14.01,2013-09-23 10:17:00,
2013-09-23 06:22:00,40.5,38.9,30.09,North,0,0.0,0.0,94,0.00,,CLR,0.00,VWS V14.01,2013-09-23 10:22:00,
2013-09-23 06:27:00,40.5,38.9,30.09,North,0,0.0,0.0,94,0.00,,CLR,0.00,VWS V14.01,2013-09-23 10:27:00,
2013-09-23 06:30:00,41.5,39.9,30.07,North,0,0.0,0.0,94,0.00,,CLR,0.00,VWS V14.01,2013-09-23 10:30:00,
2013-09-23 06:32:00,40.3,38.7,30.09,North,0,0.0,0.0,94,0.00,,CLR,0.00,VWS V14.01,2013-09-23 10:32:00,
2013-09-23 06:37:00,40.2,38.6,30.09,North,0,0.0,0.0,94,0.00,,CLR,0.00,VWS V14.01,2013-09-23 10:37:00,
2013-09-23 06:42:00,40.1,38.5,30.09,North,0,0.0,0.0,94,0.00,,CLR,0.00,VWS V14.01,2013-09-23 10:42:00,
2013-09-23 06:45:00,41.2,39.6,30.08,North,0,0.0,0.0,94,0.00,,CLR,0.00,VWS V14.01,2013-09-23 10:45:00,
2013-09-23 06:47:00,40.1,38.5,30.10,North,0,0.0,0.0,94,0.00,,CLR,0.00,VWS V14.01,2013-09-23 10:47:00,
2013-09-23 06:52:00,39.9,38.3,30.10,North,0,0.0,0.0,94,0.00,,CLR,0.00,VWS V14.01,2013-09-23 10:52:00,
2013-09-23 06:57:00,40.1,38.8,30.10,North,0,0.0,0.0,95,0.00,,CLR,0.00,VWS V14.01,2013-09-23 10:57:00,
2013-09-23 07:00:00,40.9,39.3,30.08,North,0,0.0,0.0,94,0.00,,CLR,0.00,VWS V14.01,2013-09-23 11:00:00,
2013-09-23 07:02:00,40.1,38.8,30.10,North,0,0.0,0.0,95,0.00,,,0.00,VWS V14.01,2013-09-23 11:02:00,
2013-09-23 07:07:00,40.1,38.8,30.10,North,0,0.0,0.0,95,0.00,,,0.00,VWS V14.01,2013-09-23 11:07:00,
2013-09-23 07:12:00,40.1,38.8,30.10,North,0,0.0,0.0,95,0.00,,,0.00,VWS V14.01,2013-09-23 11:12:00,
2013-09-23 07:15:00,40.8,39.2,30.09,North,0,0.0,0.0,94,0.00,,CLR,0.00,VWS V14.01,2013-09-23 11:15:00,
2013-09-23 07:17:00,40.1,38.8,30.11,North,0,0.0,0.0,95,0.00,,,0.00,VWS V14.01,2013-09-23 11:17:00,
2013-09-23 07:22:00,40.1,38.8,30.11,North,0,0.0,0.0,95,0.00,,,0.00,VWS V14.01,2013-09-23 11:22:00,
2013-09-23 07:27:00,40.2,38.9,30.11,North,0,0.0,0.0,95,0.00,,,0.00,VWS V14.01,2013-09-23 11:27:00,
2013-09-23 07:30:00,40.3,38.7,30.09,North,0,0.0,0.0,94,0.00,,CLR,0.00,VWS V14.01,2013-09-23 11:30:00,
2013-09-23 07:32:00,40.2,38.9,30.11,North,0,0.0,0.0,95,0.00,,,0.00,VWS V14.01,2013-09-23 11:32:00,
2013-09-23 07:37:00,40.2,38.9,30.11,North,0,0.0,0.0,95,0.00,,,0.00,VWS V14.01,2013-09-23 11:37:00,
2013-09-23 07:42:00,40.2,38.9,30.11,North,0,0.0,0.0,95,0.00,,,0.00,VWS V14.01,2013-09-23 11:42:00,
2013-09-23 07:45:00,40.1,38.5,30.10,North,0,0.0,0.0,94,0.00,,CLR,0.00,VWS V14.01,2013-09-23 11:45:00,
2013-09-23 07:47:00,40.3,39.0,30.12,North,0,0.0,0.0,95,0.00,,,0.00,VWS V14.01,2013-09-23 11:47:00,
2013-09-23 07:52:00,40.5,39.2,30.12,North,0,0.0,0.0,95,0.00,,,0.00,VWS V14.01,2013-09-23 11:52:00,
2013-09-23 07:57:00,40.6,39.3,30.12,North,0,0.0,0.0,95,0.00,,,0.00,VWS V14.01,2013-09-23 11:57:00,
2013-09-23 08:00:00,40.1,38.8,30.10,North,0,0.0,0.0,95,0.00,,CLR,0.00,VWS V14.01,2013-09-23 12:00:00,
2013-09-23 08:02:00,40.8,39.5,30.12,North,0,0.0,0.0,95,0.00,,,0.00,VWS V14.01,2013-09-23 12:02:00,
2013-09-23 08:07:00,41.1,39.8,30.12,North,0,0.0,0.0,95,0.00,,,0.00,VWS V14.01,2013-09-23 12:07:00,
2013-09-23 08:12:00,41.6,40.5,30.12,North,0,0.0,0.0,96,0.00,,,0.00,VWS V14.01,2013-09-23 12:12:00,
2013-09-23 08:15:00,40.1,38.8,30.11,North,0,0.0,0.0,95,0.00,,CLR,0.00,VWS V14.01,2013-09-23 12:15:00,
2013-09-23 08:17:00,42.2,41.1,30.13,North,0,0.0,0.0,96,0.00,,,0.00,VWS V14.01,2013-09-23 12:17:00,
2013-09-23 08:22:00,43.1,42.3,30.13,North,0,0.0,0.0,97,0.00,,,0.00,VWS V14.01,2013-09-23 12:22:00,
2013-09-23 08:27:00,44.2,43.4,30.13,North,0,0.0,0.0,97,0.00,,,0.00,VWS V14.01,2013-09-23 12:27:00,
2013-09-23 08:30:00,40.2,38.9,30.11,North,0,0.0,0.0,95,0.00,,CLR,0.00,VWS V14.01,2013-09-23 12:30:00,
2013-09-23 08:32:00,45.2,45.2,30.13,North,0,0.0,0.0,100,0.00,,,0.00,VWS V14.01,2013-09-23 12:32:00,
2013-09-23 08:37:00,46.2,46.2,30.13,NE,35,0.0,3.0,100,0.00,,,0.00,VWS V14.01,2013-09-23 12:37:00,
2013-09-23 08:42:00,47.0,47.0,30.13,NE,37,0.0,3.0,100,0.00,,,0.00,VWS V14.01,2013-09-23 12:42:00,
2013-09-23 08:45:00,40.2,38.9,30.12,North,0,0.0,0.0,95,0.00,,CLR,0.00,VWS V14.01,2013-09-23 12:45:00,
2013-09-23 08:47:00,47.7,47.7,30.13,NE,37,0.0,1.0,100,0.00,,,0.00,VWS V14.01,2013-09-23 12:47:00,
2013-09-23 08:52:00,48.5,48.5,30.13,NE,37,0.0,0.0,100,0.00,,,0.00,VWS V14.01,2013-09-23 12:52:00,
2013-09-23 08:57:00,49.1,49.1,30.13,NNE,24,0.0,0.0,100,0.00,,,0.00,VWS V14.01,2013-09-23 12:57:00,
2013-09-23 09:00:00,40.6,39.3,30.12,North,0,0.0,0.0,95,0.00,,CLR,0.00,VWS V14.01,2013-09-23 13:00:00,
2013-09-23 09:02:00,49.5,49.0,30.13,NE,55,0.0,3.0,98,0.00,,CLR,0.00,VWS V14.01,2013-09-23 13:02:00,
2013-09-23 09:07:00,49.6,48.8,30.13,NNE,30,0.0,5.0,97,0.00,,CLR,0.00,VWS V14.01,2013-09-23 13:07:00,
2013-09-23 09:12:00,49.9,48.8,30.13,ENE,68,0.0,4.0,96,0.00,,CLR,0.00,VWS V14.01,2013-09-23 13:12:00,
2013-09-23 09:15:00,41.9,40.8,30.13,North,0,0.0,0.0,96,0.00,,CLR,0.00,VWS V14.01,2013-09-23 13:15:00,
2013-09-23 09:17:00,50.4,49.3,30.13,ENE,65,0.0,2.0,96,0.00,,CLR,0.00,VWS V14.01,2013-09-23 13:17:00,
2013-09-23 09:22:00,51.1,49.7,30.13,North,6,1.0,2.0,95,0.00,,CLR,0.00,VWS V14.01,2013-09-23 13:22:00,
2013-09-23 09:27:00,51.7,50.0,30.13,NNE,21,0.0,5.0,94,0.00,,CLR,0.00,VWS V14.01,2013-09-23 13:27:00,
2013-09-23 09:30:00,44.8,44.8,30.13,North,0,0.0,0.0,100,0.00,,CLR,0.00,VWS V14.01,2013-09-23 13:30:00,
2013-09-23 09:32:00,52.6,50.3,30.14,NE,42,3.0,5.0,92,0.00,,CLR,0.00,VWS V14.01,2013-09-23 13:32:00,
2013-09-23 09:37:00,53.5,50.6,30.14,NNE,27,0.0,5.0,90,0.00,,CLR,0.00,VWS V14.01,2013-09-23 13:37:00,
2013-09-23 09:42:00,54.4,50.6,30.14,ENE,71,4.0,5.0,87,0.00,,CLR,0.00,VWS V14.01,2013-09-23 13:42:00,
2013-09-23 09:45:00,47.3,47.3,30.13,NE,37,0.0,1.0,100,0.00,,CLR,0.00,VWS V14.01,2013-09-23 13:45:00,
2013-09-23 09:47:00,54.8,49.7,30.14,ENE,59,1.0,8.0,83,0.00,,CLR,0.00,VWS V14.01,2013-09-23 13:47:00,
2013-09-23 09:52:00,55.7,50.3,30.14,North,11,0.0,8.0,82,0.00,,CLR,0.00,VWS V14.01,2013-09-23 13:52:00,
2013-09-23 09:57:00,56.6,49.8,30.14,North,11,0.0,7.0,78,0.00,,CLR,0.00,VWS V14.01,2013-09-23 13:57:00,
2013-09-23 10:00:00,49.4,49.1,30.13,NNE,30,0.0,1.0,99,0.00,,CLR,0.00,VWS V14.01,2013-09-23 14:00:00,
2013-09-23 10:02:00,57.3,49.1,30.14,NE,49,5.0,6.0,74,0.00,,CLR,0.00,VWS V14.01,2013-09-23 14:02:00,
2013-09-23 10:07:00,58.0,48.7,30.14,NNE,16,0.0,7.0,71,0.00,,CLR,0.00,VWS V14.01,2013-09-23 14:07:00,
2013-09-23 10:12:00,58.4,47.9,30.14,North,10,6.0,7.0,68,0.00,,CLR,0.00,VWS V14.01,2013-09-23 14:12:00,
2013-09-23 10:15:00,50.1,49.0,30.13,ENE,65,0.0,4.0,96,0.00,,CLR,0.00,VWS V14.01,2013-09-23 14:15:00,
2013-09-23 10:17:00,58.7,47.4,30.15,NNE,27,0.0,8.0,66,0.00,,CLR,0.00,VWS V14.01,2013-09-23 14:17:00,
2013-09-23 10:22:00,59.5,48.2,30.15,NNE,24,0.0,7.0,66,0.00,,CLR,0.00,VWS V14.01,2013-09-23 14:22:00,
2013-09-23 10:27:00,60.1,47.9,30.15,NNE,23,0.0,5.0,64,0.00,,CLR,0.00,VWS V14.01,2013-09-23 14:27:00,
2013-09-23 10:30:00,52.2,50.2,30.14,NNE,23,0.0,5.0,93,0.00,,CLR,0.00,VWS V14.01,2013-09-23 14:30:00,
2013-09-23 10:32:00,60.5,47.0,30.14,NE,35,0.0,6.0,61,0.00,,CLR,0.00,VWS V14.01,2013-09-23 14:32:00,
2013-09-23 10:37:00,61.2,46.8,30.14,ENE,75,0.0,7.0,59,0.00,,CLR,0.00,VWS V14.01,2013-09-23 14:37:00,
2013-09-23 10:42:00,61.5,46.1,30.14,NNE,27,0.0,7.0,57,0.00,,CLR,0.00,VWS V14.01,2013-09-23 14:42:00,
2013-09-23 10:45:00,54.7,50.3,30.14,ENE,62,1.0,6.0,85,0.00,,CLR,0.00,VWS V14.01,2013-09-23 14:45:00,
2013-09-23 10:47:00,61.0,44.7,30.14,East,82,0.0,6.0,55,0.00,,CLR,0.00,VWS V14.01,2013-09-23 14:47:00,
2013-09-23 10:52:00,60.9,46.0,30.14,East,82,0.0,2.0,58,0.00,,CLR,0.00,VWS V14.01,2013-09-23 14:52:00,
2013-09-23 10:57:00,61.3,45.0,30.14,ENE,58,1.0,6.0,55,0.00,,CLR,0.00,VWS V14.01,2013-09-23 14:57:00,
2013-09-23 11:00:00,57.0,49.2,30.14,NE,45,1.0,6.0,75,0.00,,CLR,0.00,VWS V14.01,2013-09-23 15:00:00,
2013-09-23 11:02:00,61.3,46.0,30.15,ENE,69,0.0,6.0,57,0.00,,FEW035,0.00,VWS V14.01,2013-09-23 15:02:00,
2013-09-23 11:07:00,61.3,46.4,30.15,NNE,18,1.0,5.0,58,0.00,,FEW035,0.00,VWS V14.01,2013-09-23 15:07:00,
2013-09-23 11:12:00,61.5,45.7,30.15,NNE,21,0.0,5.0,56,0.00,,FEW035,0.00,VWS V14.01,2013-09-23 15:12:00,
2013-09-23 11:15:00,58.6,47.7,30.15,North,8,0.0,8.0,67,0.00,,CLR,0.00,VWS V14.01,2013-09-23 15:15:00,
2013-09-23 11:17:00,62.3,46.0,30.15,ENE,69,0.0,6.0,55,0.00,,FEW035,0.00,VWS V14.01,2013-09-23 15:17:00,
2013-09-23 11:22:00,62.6,45.2,30.15,NE,55,1.0,6.0,53,0.00,,FEW035,0.00,VWS V14.01,2013-09-23 15:22:00,
2013-09-23 11:27:00,61.6,45.8,30.15,NNE,28,2.0,6.0,56,0.00,,FEW035,0.00,VWS V14.01,2013-09-23 15:27:00,
2013-09-23 11:30:00,60.4,47.8,30.14,NNE,17,2.0,6.0,63,0.00,,CLR,0.00,VWS V14.01,2013-09-23 15:30:00,
2013-09-23 11:32:00,61.6,45.3,30.15,NE,51,0.0,6.0,55,0.00,,FEW035,0.00,VWS V14.01,2013-09-23 15:32:00,
2013-09-23 11:37:00,62.3,46.4,30.15,NNE,25,4.0,6.0,56,0.00,,FEW035,0.00,VWS V14.01,2013-09-23 15:37:00,
2013-09-23 11:42:00,62.1,44.3,30.15,ENE,72,0.0,6.0,52,0.00,,FEW035,0.00,VWS V14.01,2013-09-23 15:42:00,
2013-09-23 11:45:00,61.5,46.1,30.14,East,90,1.0,6.0,57,0.00,,CLR,0.00,VWS V14.01,2013-09-23 15:45:00,
2013-09-23 11:47:00,62.3,45.5,30.14,NNE,14,0.0,8.0,54,0.00,,FEW035,0.00,VWS V14.01,2013-09-23 15:47:00,
2013-09-23 11:52:00,62.3,45.5,30.14,NNW,346,0.0,8.0,54,0.00,,FEW035,0.00,VWS V14.01,2013-09-23 15:52:00,
2013-09-23 11:57:00,62.1,45.8,30.14,NE,40,0.0,7.0,55,0.00,,FEW035,0.00,VWS V14.01,2013-09-23 15:57:00,
2013-09-23 12:00:00,61.3,44.5,30.15,ENE,66,0.0,6.0,54,0.00,,CLR,0.00,VWS V14.01,2013-09-23 16:00:00,
2013-09-23 12:02:00,61.8,46.4,30.14,NNE,23,6.0,7.0,57,0.00,,SCT039,0.00,VWS V14.01,2013-09-23 16:02:00,
2013-09-23 12:07:00,62.1,45.8,30.14,NE,56,0.0,7.0,55,0.00,,SCT039,0.00,VWS V14.01,2013-09-23 16:07:00,
2013-09-23 12:12:00,62.6,46.2,30.14,NNE,27,1.0,7.0,55,0.00,,SCT039,0.00,VWS V14.01,2013-09-23 16:12:00,
2013-09-23 12:15:00,62.0,46.6,30.15,NNE,17,0.0,5.0,57,0.00,,CLR,0.00,VWS V14.01,2013-09-23 16:15:00,
2013-09-23 12:17:00,62.4,45.5,30.14,North,11,0.0,6.0,54,0.00,,SCT039,0.00,VWS V14.01,2013-09-23 16:17:00,
2013-09-23 12:22:00,62.1,45.8,30.14,ENE,65,0.0,7.0,55,0.00,,SCT039,0.00,VWS V14.01,2013-09-23 16:22:00,
2013-09-23 12:27:00,62.4,47.0,30.14,ENE,64,0.0,2.0,57,0.00,,SCT039,0.00,VWS V14.01,2013-09-23 16:27:00,
2013-09-23 12:30:00,61.6,45.3,30.15,ENE,64,6.0,6.0,55,0.00,,CLR,0.00,VWS V14.01,2013-09-23 16:30:00,
2013-09-23 12:32:00,63.1,46.7,30.14,ENE,58,0.0,5.0,55,0.00,,SCT039,0.00,VWS V14.01,2013-09-23 16:32:00,
2013-09-23 12:37:00,63.2,46.8,30.14,NE,54,0.0,5.0,55,0.00,,SCT039,0.00,VWS V14.01,2013-09-23 16:37:00,
2013-09-23 12:42:00,63.2,45.3,30.14,NNE,27,0.0,7.0,52,0.00,,SCT039,0.00,VWS V14.01,2013-09-23 16:42:00,
2013-09-23 12:45:00,62.1,46.2,30.14,NE,37,0.0,5.0,56,0.00,,CLR,0.00,VWS V14.01,2013-09-23 16:45:00,
2013-09-23 12:47:00,63.2,45.8,30.14,NE,41,2.0,6.0,53,0.00,,SCT039,0.00,VWS V14.01,2013-09-23 16:47:00,
2013-09-23 12:52:00,63.5,46.6,30.14,North,10,0.0,7.0,54,0.00,,SCT039,0.00,VWS V14.01,2013-09-23 16:52:00,
2013-09-23 12:57:00,63.5,45.6,30.14,ESE,103,0.0,5.0,52,0.00,,SCT039,0.00,VWS V14.01,2013-09-23 16:57:00,
2013-09-23 13:00:00,61.8,45.0,30.14,ENE,65,0.0,7.0,54,0.00,,CLR,0.00,VWS V14.01,2013-09-23 17:00:00,
2013-09-23 13:02:00,63.4,44.5,30.14,ENE,76,0.0,5.0,50,0.00,,SCT039,0.00,VWS V14.01,2013-09-23 17:02:00,
2013-09-23 13:07:00,63.1,44.7,30.14,ENE,76,0.0,6.0,51,0.00,,SCT039,0.00,VWS V14.01,2013-09-23 17:07:00,
2013-09-23 13:12:00,63.2,45.3,30.14,North,10,0.0,7.0,52,0.00,,SCT039,0.00,VWS V14.01,2013-09-23 17:12:00,
2013-09-23 13:15:00,62.6,45.7,30.14,NE,45,0.0,3.0,54,0.00,,CLR,0.00,VWS V14.01,2013-09-23 17:15:00,
2013-09-23 13:17:00,63.7,45.8,30.14,East,90,0.0,10.0,52,0.00,,FEW041,0.00,VWS V14.01,2013-09-23 17:17:00,
2013-09-23 13:22:00,63.7,45.8,30.14,NE,48,0.0,9.0,52,0.00,,FEW041,0.00,VWS V14.01,2013-09-23 17:22:00,
2013-09-23 13:27:00,63.1,45.2,30.14,ENE,66,0.0,7.0,52,0.00,,FEW041,0.00,VWS V14.01,2013-09-23 17:27:00,
2013-09-23 13:30:00,62.9,46.0,30.14,ENE,76,4.0,4.0,54,0.00,,CLR,0.00,VWS V14.01,2013-09-23 17:30:00,
2013-09-23 13:32:00,63.2,47.7,30.14,ENE,75,0.0,7.0,57,0.00,,FEW041,0.00,VWS V14.01,2013-09-23 17:32:00,
2013-09-23 13:37:00,63.9,45.4,30.14,ENE,78,0.0,6.0,51,0.00,,FEW041,0.00,VWS V14.01,2013-09-23 17:37:00,
2013-09-23 13:42:00,64.0,45.0,30.14,ENE,69,0.0,6.0,50,0.00,,FEW041,0.00,VWS V14.01,2013-09-23 17:42:00,
2013-09-23 13:45:00,63.2,44.8,30.14,NE,47,0.0,7.0,51,0.00,,CLR,0.00,VWS V14.01,2013-09-23 17:45:00,
2013-09-23 13:47:00,63.7,46.3,30.14,North,7,0.0,10.0,53,0.00,,FEW041,0.00,VWS V14.01,2013-09-23 17:47:00,
2013-09-23 13:52:00,63.5,46.1,30.14,NE,49,0.0,8.0,53,0.00,,FEW041,0.00,VWS V14.01,2013-09-23 17:52:00,
2013-09-23 13:57:00,63.7,45.2,30.14,NE,55,0.0,6.0,51,0.00,,FEW041,0.00,VWS V14.01,2013-09-23 17:57:00,
2013-09-23 14:00:00,63.5,45.1,30.14,NE,48,0.0,5.0,51,0.00,,CLR,0.00,VWS V14.01,2013-09-23 18:00:00,
2013-09-23 14:02:00,63.9,47.0,30.13,NE,55,0.0,6.0,54,0.00,,FEW041,0.00,VWS V14.01,2013-09-23 18:02:00,
2013-09-23 14:07:00,64.3,46.3,30.13,NNE,30,0.0,9.0,52,0.00,,FEW041,0.00,VWS V14.01,2013-09-23 18:07:00,
2013-09-23 14:12:00,64.8,48.3,30.13,NNE,32,0.0,9.0,55,0.00,,FEW041,0.00,VWS V14.01,2013-09-23 18:12:00,
2013-09-23 14:15:00,63.4,46.0,30.14,NNE,24,1.0,10.0,53,0.00,,CLR,0.00,VWS V14.01,2013-09-23 18:15:00,
2013-09-23 14:17:00,65.3,48.2,30.12,ENE,58,4.0,13.0,54,0.00,,SCT043,0.00,VWS V14.01,2013-09-23 18:17:00,
2013-09-23 14:22:00,65.3,48.2,30.12,ENE,69,0.0,13.0,54,0.00,,SCT043,0.00,VWS V14.01,2013-09-23 18:22:00,
2013-09-23 14:27:00,65.2,48.2,30.12,ENE,59,0.0,7.0,54,0.00,,SCT043,0.00,VWS V14.01,2013-09-23 18:27:00,
2013-09-23 14:30:00,63.1,46.2,30.14,NE,55,1.0,7.0,54,0.00,,CLR,0.00,VWS V14.01,2013-09-23 18:30:00,
2013-09-23 14:32:00,65.2,48.6,30.12,NE,42,3.0,6.0,55,0.00,,SCT043,0.00,VWS V14.01,2013-09-23 18:32:00,
2013-09-23 14:37:00,64.2,46.2,30.12,NNE,23,0.0,5.0,52,0.00,,SCT043,0.00,VWS V14.01,2013-09-23 18:37:00,
2013-09-23 14:42:00,64.0,46.5,30.12,NNE,23,1.0,6.0,53,0.00,,SCT043,0.00,VWS V14.01,2013-09-23 18:42:00,
2013-09-23 14:45:00,63.9,45.4,30.14,NNE,25,8.0,10.0,51,0.00,,CLR,0.00,VWS V14.01,2013-09-23 18:45:00,
2013-09-23 14:47:00,64.3,47.8,30.12,North,0,0.0,7.0,55,0.00,,SCT043,0.00,VWS V14.01,2013-09-23 18:47:00,
2013-09-23 14:52:00,64.5,47.0,30.12,NE,54,0.0,7.0,53,0.00,,SCT043,0.00,VWS V14.01,2013-09-23 18:52:00,
2013-09-23 14:57:00,64.7,46.7,30.12,NNE,23,2.0,8.0,52,0.00,,SCT043,0.00,VWS V14.01,2013-09-23 18:57:00,
2013-09-23 15:00:00,63.9,47.9,30.13,NE,54,0.0,6.0,56,0.00,,CLR,0.00,VWS V14.01,2013-09-23 19:00:00,
2013-09-23 15:02:00,65.2,47.7,30.12,North,357,0.0,10.0,53,0.00,,FEW041,0.00,VWS V14.01,2013-09-23 19:02:00,
2013-09-23 15:07:00,65.2,47.7,30.12,East,88,0.0,10.0,53,0.00,,FEW041,0.00,VWS V14.01,2013-09-23 19:07:00,
2013-09-23 15:12:00,64.7,48.2,30.12,North,11,0.0,8.0,55,0.00,,FEW041,0.00,VWS V14.01,2013-09-23 19:12:00,
2013-09-23 15:15:00,65.3,47.2,30.12,NNE,18,3.0,7.0,52,0.00,,CLR,0.00,VWS V14.01,2013-09-23 19:15:00,
2013-09-23 15:17:00,65.2,48.2,30.12,NE,40,0.0,8.0,54,0.00,,FEW041,0.00,VWS V14.01,2013-09-23 19:17:00,
2013-09-23 15:22:00,65.5,45.8,30.12,ENE,68,1.0,4.0,49,0.00,,FEW041,0.00,VWS V14.01,2013-09-23 19:22:00,
2013-09-23 15:27:00,64.8,47.3,30.12,NE,47,0.0,7.0,53,0.00,,FEW041,0.00,VWS V14.01,2013-09-23 19:27:00,
2013-09-23 15:30:00,65.0,48.5,30.12,NNE,24,1.0,7.0,55,0.00,,CLR,0.00,VWS V14.01,2013-09-23 19:30:00,
2013-09-23 15:32:00,64.8,46.3,30.11,NNE,16,0.0,5.0,51,0.00,,FEW041,0.00,VWS V14.01,2013-09-23 19:32:00,
2013-09-23 15:37:00,65.3,46.7,30.11,NNW,342,0.0,7.0,51,0.00,,FEW041,0.00,VWS V14.01,2013-09-23 19:37:00,
2013-09-23 15:42:00,65.2,47.2,30.11,NE,37,0.0,7.0,52,0.00,,FEW041,0.00,VWS V14.01,2013-09-23 19:42:00,
2013-09-23 15:45:00,64.3,47.8,30.12,NNW,339,0.0,7.0,55,0.00,,CLR,0.00,VWS V14.01,2013-09-23 19:45:00,
2013-09-23 15:47:00,65.3,47.8,30.11,NE,47,0.0,7.0,53,0.00,,FEW041,0.00,VWS V14.01,2013-09-23 19:47:00,
2013-09-23 15:52:00,65.5,47.9,30.11,NNE,25,0.0,5.0,53,0.00,,FEW041,0.00,VWS V14.01,2013-09-23 19:52:00,
2013-09-23 15:57:00,65.6,47.0,30.11,NNE,16,0.0,8.0,51,0.00,,FEW041,0.00,VWS V14.01,2013-09-23 19:57:00,
2013-09-23 16:00:00,65.0,48.0,30.12,NNE,24,0.0,8.0,54,0.00,,CLR,0.00,VWS V14.01,2013-09-23 20:00:00,
2013-09-23 16:02:00,65.6,46.5,30.10,NNE,16,0.0,8.0,50,0.00,,CLR,0.00,VWS V14.01,2013-09-23 20:02:00,
2013-09-23 16:07:00,65.8,46.1,30.10,NNE,16,1.0,8.0,49,0.00,,CLR,0.00,VWS V14.01,2013-09-23 20:07:00,
2013-09-23 16:12:00,66.0,46.8,30.10,North,6,0.0,8.0,50,0.00,,CLR,0.00,VWS V14.01,2013-09-23 20:12:00,
2013-09-23 16:15:00,64.8,46.3,30.12,North,11,4.0,8.0,51,0.00,,CLR,0.00,VWS V14.01,2013-09-23 20:15:00,
2013-09-23 16:17:00,65.8,47.2,30.11,NE,52,6.0,7.0,51,0.00,,CLR,0.00,VWS V14.01,2013-09-23 20:17:00,
2013-09-23 16:22:00,65.8,47.7,30.11,East,79,0.0,8.0,52,0.00,,CLR,0.00,VWS V14.01,2013-09-23 20:22:00,
2013-09-23 16:27:00,65.3,46.7,30.11,East,85,0.0,8.0,51,0.00,,CLR,0.00,VWS V14.01,2013-09-23 20:27:00,
2013-09-23 16:30:00,64.8,46.8,30.11,ENE,58,0.0,7.0,52,0.00,,CLR,0.00,VWS V14.01,2013-09-23 20:30:00,
2013-09-23 16:32:00,64.5,46.5,30.11,ENE,64,0.0,7.0,52,0.00,,CLR,0.00,VWS V14.01,2013-09-23 20:32:00,
2013-09-23 16:37:00,64.5,47.5,30.11,NNE,18,0.0,3.0,54,0.00,,CLR,0.00,VWS V14.01,2013-09-23 20:37:00,
2013-09-23 16:42:00,64.8,46.8,30.11,ENE,75,0.0,5.0,52,0.00,,CLR,0.00,VWS V14.01,2013-09-23 20:42:00,
2013-09-23 16:45:00,65.3,46.7,30.11,NE,52,3.0,7.0,51,0.00,,CLR,0.00,VWS V14.01,2013-09-23 20:45:00,
2013-09-23 16:47:00,64.7,46.7,30.11,NE,40,1.0,5.0,52,0.00,,CLR,0.00,VWS V14.01,2013-09-23 20:47:00,
2013-09-23 16:52:00,64.7,47.2,30.11,North,6,6.0,6.0,53,0.00,,CLR,0.00,VWS V14.01,2013-09-23 20:52:00,
2013-09-23 16:57:00,64.8,47.3,30.11,ENE,69,2.0,7.0,53,0.00,,CLR,0.00,VWS V14.01,2013-09-23 20:57:00,
2013-09-23 17:00:00,65.6,46.5,30.10,NNE,20,0.0,8.0,50,0.00,,CLR,0.00,VWS V14.01,2013-09-23 21:00:00,
2013-09-23 17:02:00,64.5,47.5,30.11,North,0,0.0,7.0,54,0.00,,CLR,0.00,VWS V14.01,2013-09-23 21:02:00,
2013-09-23 17:07:00,64.5,46.5,30.11,NE,35,0.0,3.0,52,0.00,,CLR,0.00,VWS V14.01,2013-09-23 21:07:00,
2013-09-23 17:12:00,64.3,46.8,30.11,NNE,21,0.0,5.0,53,0.00,,CLR,0.00,VWS V14.01,2013-09-23 21:12:00,
2013-09-23 17:15:00,65.8,47.2,30.11,North,11,0.0,5.0,51,0.00,,CLR,0.00,VWS V14.01,2013-09-23 21:15:00,
2013-09-23 17:17:00,64.3,46.3,30.11,North,11,0.0,6.0,52,0.00,,CLR,0.00,VWS V14.01,2013-09-23 21:17:00,
2013-09-23 17:22:00,64.3,46.3,30.11,East,89,0.0,6.0,52,0.00,,CLR,0.00,VWS V14.01,2013-09-23 21:22:00,
2013-09-23 17:27:00,63.5,46.6,30.11,ENE,69,0.0,5.0,54,0.00,,CLR,0.00,VWS V14.01,2013-09-23 21:27:00,
2013-09-23 17:30:00,64.8,46.8,30.11,ENE,62,0.0,7.0,52,0.00,,CLR,0.00,VWS V14.01,2013-09-23 21:30:00,
2013-09-23 17:32:00,63.4,47.5,30.11,NNE,25,0.0,5.0,56,0.00,,CLR,0.00,VWS V14.01,2013-09-23 21:32:00,
2013-09-23 17:37:00,63.2,47.3,30.11,North,1,0.0,6.0,56,0.00,,CLR,0.00,VWS V14.01,2013-09-23 21:37:00,
2013-09-23 17:42:00,62.9,46.5,30.11,NE,55,7.0,8.0,55,0.00,,CLR,0.00,VWS V14.01,2013-09-23 21:42:00,
2013-09-23 17:45:00,65.0,47.5,30.11,NE,41,0.0,5.0,53,0.00,,CLR,0.00,VWS V14.01,2013-09-23 21:45:00,
2013-09-23 17:47:00,62.7,46.8,30.11,East,86,0.0,8.0,56,0.00,,CLR,0.00,VWS V14.01,2013-09-23 21:47:00,
2013-09-23 17:52:00,62.6,46.7,30.11,NNE,14,0.0,6.0,56,0.00,,CLR,0.00,VWS V14.01,2013-09-23 21:52:00,
2013-09-23 17:57:00,62.1,46.7,30.11,ENE,75,0.0,6.0,57,0.00,,CLR,0.00,VWS V14.01,2013-09-23 21:57:00,
2013-09-23 18:00:00,64.7,46.7,30.11,ENE,68,0.0,7.0,52,0.00,,CLR,0.00,VWS V14.01,2013-09-23 22:00:00,
2013-09-23 18:02:00,61.6,46.7,30.11,NNE,17,0.0,5.0,58,0.00,,CLR,0.00,VWS V14.01,2013-09-23 22:02:00,
2013-09-23 18:07:00,61.2,46.8,30.11,NE,35,0.0,5.0,59,0.00,,CLR,0.00,VWS V14.01,2013-09-23 22:07:00,
2013-09-23 18:12:00,60.5,46.1,30.11,NNE,31,0.0,8.0,59,0.00,,CLR,0.00,VWS V14.01,2013-09-23 22:12:00,
2013-09-23 18:15:00,64.5,47.0,30.11,NNE,28,0.0,6.0,53,0.00,,CLR,0.00,VWS V14.01,2013-09-23 22:15:00,
2013-09-23 18:17:00,60.1,46.6,30.11,NNE,20,0.0,8.0,61,0.00,,CLR,0.00,VWS V14.01,2013-09-23 22:17:00,
2013-09-23 18:22:00,59.9,46.4,30.11,NE,44,0.0,6.0,61,0.00,,CLR,0.00,VWS V14.01,2013-09-23 22:22:00,
2013-09-23 18:27:00,59.5,46.5,30.11,ENE,66,0.0,2.0,62,0.00,,CLR,0.00,VWS V14.01,2013-09-23 22:27:00,
2013-09-23 18:30:00,63.4,47.0,30.11,ENE,62,0.0,5.0,55,0.00,,CLR,0.00,VWS V14.01,2013-09-23 22:30:00,
2013-09-23 18:32:00,59.2,46.2,30.12,NE,52,0.0,2.0,62,0.00,,CLR,0.00,VWS V14.01,2013-09-23 22:32:00,
2013-09-23 18:37:00,58.9,45.9,30.12,NNE,28,3.0,3.0,62,0.00,,CLR,0.00,VWS V14.01,2013-09-23 22:37:00,
2013-09-23 18:42:00,58.6,46.1,30.12,ENE,65,0.0,4.0,63,0.00,,CLR,0.00,VWS V14.01,2013-09-23 22:42:00,
2013-09-23 18:45:00,62.9,46.5,30.11,North,11,0.0,8.0,55,0.00,,CLR,0.00,VWS V14.01,2013-09-23 22:45:00,
2013-09-23 18:47:00,58.3,46.2,30.12,NNE,27,0.0,4.0,64,0.00,,CLR,0.00,VWS V14.01,2013-09-23 22:47:00,
2013-09-23 18:52:00,58.0,45.9,30.12,NNE,27,0.0,1.0,64,0.00,,CLR,0.00,VWS V14.01,2013-09-23 22:52:00,
2013-09-23 18:57:00,57.8,46.1,30.12,ENE,64,0.0,1.0,65,0.00,,CLR,0.00,VWS V14.01,2013-09-23 22:57:00,
2013-09-23 19:00:00,62.0,47.1,30.11,East,80,0.0,6.0,58,0.00,,CLR,0.00,VWS V14.01,2013-09-23 23:00:00,
2013-09-23 19:02:00,57.5,46.2,30.12,NE,56,0.0,3.0,66,0.00,,CLR,0.00,VWS V14.01,2013-09-23 23:02:00,
2013-09-23 19:07:00,57.0,45.8,30.12,ENE,58,0.0,0.0,66,0.00,,CLR,0.00,VWS V14.01,2013-09-23 23:07:00,
2013-09-23 19:12:00,56.7,45.9,30.12,ENE,76,0.0,0.0,67,0.00,,CLR,0.00,VWS V14.01,2013-09-23 23:12:00,
2013-09-23 19:15:00,60.4,46.5,30.11,North,7,0.0,8.0,60,0.00,,CLR,0.00,VWS V14.01,2013-09-23 23:15:00,
2013-09-23 19:17:00,56.5,46.1,30.11,ENE,72,0.0,2.0,68,0.00,,CLR,0.00,VWS V14.01,2013-09-23 23:17:00,
2013-09-23 19:22:00,56.2,46.2,30.11,ENE,71,0.0,2.0,69,0.00,,CLR,0.00,VWS V14.01,2013-09-23 23:22:00,
2013-09-23 19:27:00,55.9,46.3,30.11,ENE,75,0.0,0.0,70,0.00,,CLR,0.00,VWS V14.01,2013-09-23 23:27:00,
2013-09-23 19:30:00,59.5,46.5,30.12,ENE,66,0.0,2.0,62,0.00,,CLR,0.00,VWS V14.01,2013-09-23 23:30:00,
2013-09-23 19:32:00,55.4,46.2,30.12,ENE,61,0.0,0.0,71,0.00,,CLR,0.00,VWS V14.01,2013-09-23 23:32:00,
2013-09-23 19:37:00,55.1,45.9,30.12,NE,54,0.0,0.0,71,0.00,,CLR,0.00,VWS V14.01,2013-09-23 23:37:00,
2013-09-23 19:42:00,54.8,46.0,30.12,NE,54,0.0,0.0,72,0.00,,CLR,0.00,VWS V14.01,2013-09-23 23:42:00,
2013-09-23 19:45:00,58.4,45.9,30.12,ENE,64,0.0,4.0,63,0.00,,CLR,0.00,VWS V14.01,2013-09-23 23:45:00,
2013-09-23 19:47:00,54.5,46.0,30.12,NE,55,0.0,0.0,73,0.00,,CLR,0.00,VWS V14.01,2013-09-23 23:47:00,
2013-09-23 19:52:00,54.2,46.1,30.12,NE,55,0.0,0.0,74,0.00,,CLR,0.00,VWS V14.01,2013-09-23 23:52:00,
2013-09-23 19:57:00,53.9,45.8,30.12,NE,55,0.0,0.0,74,0.00,,CLR,0.00,VWS V14.01,2013-09-23 23:57:00,
2013-09-23 20:00:00,57.6,45.9,30.12,NE,56,0.0,3.0,65,0.00,,CLR,0.00,VWS V14.01,2013-09-24 00:00:00,
2013-09-23 20:02:00,53.6,45.9,30.12,NE,55,0.0,0.0,75,0.00,,CLR,0.00,VWS V14.01,2013-09-24 00:02:00,
2013-09-23 20:07:00,53.3,45.6,30.12,NE,55,0.0,0.0,75,0.00,,CLR,0.00,VWS V14.01,2013-09-24 00:07:00,
2013-09-23 20:12:00,53.1,45.8,30.12,NE,55,0.0,0.0,76,0.00,,CLR,0.00,VWS V14.01,2013-09-24 00:12:00,
2013-09-23 20:15:00,56.6,46.2,30.11,ENE,75,0.0,0.0,68,0.00,,CLR,0.00,VWS V14.01,2013-09-24 00:15:00,
2013-09-23 20:17:00,52.8,45.5,30.11,NE,55,0.0,0.0,76,0.00,,CLR,0.00,VWS V14.01,2013-09-24 00:17:00,
2013-09-23 20:22:00,52.5,45.5,30.11,NE,55,0.0,0.0,77,0.00,,CLR,0.00,VWS V14.01,2013-09-24 00:22:00,
2013-09-23 20:27:00,52.2,45.6,30.11,NE,55,0.0,0.0,78,0.00,,CLR,0.00,VWS V14.01,2013-09-24 00:27:00,
2013-09-23 20:30:00,55.7,46.1,30.12,ENE,75,0.0,0.0,70,0.00,,CLR,0.00,VWS V14.01,2013-09-24 00:30:00,
2013-09-23 20:33:00,52.0,45.4,30.11,NE,55,0.0,0.0,78,0.00,,CLR,0.00,VWS V14.01,2013-09-24 00:33:00,
2013-09-23 20:37:00,51.7,45.1,30.11,NE,55,0.0,0.0,78,0.00,,CLR,0.00,VWS V14.01,2013-09-24 00:37:00,
2013-09-23 20:42:00,51.4,45.1,30.11,NE,55,0.0,0.0,79,0.00,,CLR,0.00,VWS V14.01,2013-09-24 00:42:00,
2013-09-23 20:45:00,54.7,46.2,30.12,NE,54,0.0,0.0,73,0.00,,CLR,0.00,VWS V14.01,2013-09-24 00:45:00,
2013-09-23 20:47:00,51.1,45.2,30.12,NE,55,0.0,0.0,80,0.00,,CLR,0.00,VWS V14.01,2013-09-24 00:47:00,
2013-09-23 20:52:00,51.0,45.1,30.12,NE,55,0.0,0.0,80,0.00,,CLR,0.00,VWS V14.01,2013-09-24 00:52:00,
2013-09-23 20:57:00,50.7,45.1,30.12,NE,55,0.0,0.0,81,0.00,,CLR,0.00,VWS V14.01,2013-09-24 00:57:00,
2013-09-23 21:00:00,53.8,46.1,30.12,NE,55,0.0,0.0,75,0.00,,CLR,0.00,VWS V14.01,2013-09-24 01:00:00,
2013-09-23 21:03:00,50.5,44.9,30.12,NE,55,0.0,0.0,81,0.00,,CLR,0.00,VWS V14.01,2013-09-24 01:03:00,
2013-09-23 21:08:00,50.2,44.6,30.12,NE,55,0.0,0.0,81,0.00,,CLR,0.00,VWS V14.01,2013-09-24 01:08:00,
2013-09-23 21:13:00,50.1,44.5,30.12,NE,55,0.0,0.0,81,0.00,,CLR,0.00,VWS V14.01,2013-09-24 01:13:00,
2013-09-23 21:15:00,52.9,45.5,30.11,NE,55,0.0,0.0,76,0.00,,CLR,0.00,VWS V14.01,2013-09-24 01:15:00,
2013-09-23 21:18:00,49.8,44.5,30.12,NE,55,0.0,0.0,82,0.00,,CLR,0.00,VWS V14.01,2013-09-24 01:18:00,
2013-09-23 21:23:00,49.6,44.3,30.12,NE,55,0.0,0.0,82,0.00,,CLR,0.00,VWS V14.01,2013-09-24 01:23:00,
2013-09-23 21:28:00,49.4,44.5,30.12,NE,55,0.0,0.0,83,0.00,,CLR,0.00,VWS V14.01,2013-09-24 01:28:00,
2013-09-23 21:30:00,52.2,45.6,30.11,NE,55,0.0,0.0,78,0.00,,CLR,0.00,VWS V14.01,2013-09-24 01:30:00,
2013-09-23 21:33:00,49.2,44.6,30.12,NE,55,0.0,0.0,84,0.00,,CLR,0.00,VWS V14.01,2013-09-24 01:33:00,
2013-09-23 21:38:00,49.1,44.5,30.12,NE,55,0.0,0.0,84,0.00,,CLR,0.00,VWS V14.01,2013-09-24 01:38:00,
2013-09-23 21:43:00,48.8,44.2,30.12,NE,55,0.0,0.0,84,0.00,,CLR,0.00,VWS V14.01,2013-09-24 01:43:00,
2013-09-23 21:45:00,51.3,45.0,30.12,NE,55,0.0,0.0,79,0.00,,CLR,0.00,VWS V14.01,2013-09-24 01:45:00,
2013-09-23 21:49:00,48.6,44.3,30.12,NE,55,0.0,0.0,85,0.00,,CLR,0.00,VWS V14.01,2013-09-24 01:49:00,
2013-09-23 21:54:00,48.5,44.2,30.12,NE,55,0.0,0.0,85,0.00,,CLR,0.00,VWS V14.01,2013-09-24 01:54:00,
2013-09-23 21:59:00,48.3,44.3,30.12,NE,55,0.0,0.0,86,0.00,,CLR,0.00,VWS V14.01,2013-09-24 01:59:00,
2013-09-23 22:00:00,50.7,45.1,30.12,NE,55,0.0,0.0,81,0.00,,CLR,0.00,VWS V14.01,2013-09-24 02:00:00,
2013-09-23 22:04:00,48.2,44.2,30.12,NE,55,0.0,0.0,86,0.00,,CLR,0.00,VWS V14.01,2013-09-24 02:04:00,
2013-09-23 22:09:00,48.0,44.0,30.12,NE,55,0.0,0.0,86,0.00,,CLR,0.00,VWS V14.01,2013-09-24 02:09:00,
2013-09-23 22:14:00,47.9,43.9,30.12,NE,55,0.0,0.0,86,0.00,,CLR,0.00,VWS V14.01,2013-09-24 02:14:00,
2013-09-23 22:15:00,49.9,44.3,30.12,NE,55,0.0,0.0,81,0.00,,CLR,0.00,VWS V14.01,2013-09-24 02:15:00,
2013-09-23 22:19:00,47.7,43.7,30.12,NE,55,0.0,0.0,86,0.00,,CLR,0.00,VWS V14.01,2013-09-24 02:19:00,
2013-09-23 22:24:00,47.4,43.4,30.12,NE,55,0.0,0.0,86,0.00,,CLR,0.00,VWS V14.01,2013-09-24 02:24:00,
2013-09-23 22:29:00,47.3,43.3,30.12,NE,55,0.0,0.0,86,0.00,,CLR,0.00,VWS V14.01,2013-09-24 02:29:00,
2013-09-23 22:30:00,49.4,44.5,30.12,NE,55,0.0,0.0,83,0.00,,CLR,0.00,VWS V14.01,2013-09-24 02:30:00,
2013-09-23 22:34:00,47.1,43.4,30.12,NE,55,0.0,0.0,87,0.00,,CLR,0.00,VWS V14.01,2013-09-24 02:34:00,
2013-09-23 22:39:00,47.0,43.3,30.12,NE,55,0.0,0.0,87,0.00,,CLR,0.00,VWS V14.01,2013-09-24 02:39:00,
2013-09-23 22:44:00,46.7,43.0,30.12,NE,55,0.0,0.0,87,0.00,,CLR,0.00,VWS V14.01,2013-09-24 02:44:00,
2013-09-23 22:45:00,48.8,44.5,30.12,NE,55,0.0,0.0,85,0.00,,CLR,0.00,VWS V14.01,2013-09-24 02:45:00,
2013-09-23 22:49:00,46.5,42.8,30.12,NE,55,0.0,0.0,87,0.00,,CLR,0.00,VWS V14.01,2013-09-24 02:49:00,
2013-09-23 22:54:00,46.4,43.0,30.12,NE,55,0.0,0.0,88,0.00,,CLR,0.00,VWS V14.01,2013-09-24 02:54:00,
2013-09-23 22:59:00,46.1,42.8,30.12,NE,55,0.0,0.0,88,0.00,,CLR,0.00,VWS V14.01,2013-09-24 02:59:00,
2013-09-23 23:00:00,48.2,44.2,30.12,NE,55,0.0,0.0,86,0.00,,CLR,0.00,VWS V14.01,2013-09-24 03:00:00,
2013-09-23 23:04:00,46.0,42.7,30.12,NE,55,0.0,0.0,88,0.00,,CLR,0.00,VWS V14.01,2013-09-24 03:04:00,
2013-09-23 23:09:00,45.8,42.5,30.12,NE,55,0.0,0.0,88,0.00,,CLR,0.00,VWS V14.01,2013-09-24 03:09:00,
2013-09-23 23:14:00,45.7,42.7,30.12,NE,55,0.0,0.0,89,0.00,,CLR,0.00,VWS V14.01,2013-09-24 03:14:00,
2013-09-23 23:15:00,47.9,43.9,30.12,NE,55,0.0,0.0,86,0.00,,CLR,0.00,VWS V14.01,2013-09-24 03:15:00,
2013-09-23 23:19:00,45.5,42.5,30.12,NE,55,0.0,0.0,89,0.00,,CLR,0.00,VWS V14.01,2013-09-24 03:19:00,
2013-09-23 23:24:00,45.4,42.6,30.12,NE,55,0.0,0.0,90,0.00,,CLR,0.00,VWS V14.01,2013-09-24 03:24:00,
2013-09-23 23:28:00,45.2,42.5,30.12,NE,55,0.0,0.0,90,0.00,,CLR,0.00,VWS V14.01,2013-09-24 03:28:00,
2013-09-23 23:30:00,47.3,43.3,30.12,NE,55,0.0,0.0,86,0.00,,CLR,0.00,VWS V14.01,2013-09-24 03:30:00,
2013-09-23 23:34:00,45.1,42.3,30.12,NE,55,0.0,0.0,90,0.00,,CLR,0.00,VWS V14.01,2013-09-24 03:34:00,
2013-09-23 23:38:00,44.9,42.2,30.12,NE,55,0.0,0.0,90,0.00,,CLR,0.00,VWS V14.01,2013-09-24 03:38:00,
2013-09-23 23:44:00,44.8,42.0,30.12,NE,55,0.0,0.0,90,0.00,,CLR,0.00,VWS V14.01,2013-09-24 03:44:00,
2013-09-23 23:45:00,46.7,43.0,30.12,NE,55,0.0,0.0,87,0.00,,CLR,0.00,VWS V14.01,2013-09-24 03:45:00,
2013-09-23 23:49:00,44.6,41.8,30.12,NE,55,0.0,0.0,90,0.00,,CLR,0.00,VWS V14.01,2013-09-24 03:49:00,
2013-09-23 23:54:00,44.6,41.8,30.12,NE,55,0.0,0.0,90,0.00,,CLR,0.00,VWS V14.01,2013-09-24 03:54:00,
2013-09-23 23:59:00,44.5,42.0,30.12,NE,55,0.0,0.0,91,0.00,,CLR,0.00,VWS V14.01,2013-09-24 03:59:00,